Weather at Artesia Municipal Airport

Public forecast

Using degrees Fahrenheit for public forecast. Weather courtesy of forecast.io.

Current aviation weather report (METAR) for Artesia Municipal Airport

Retrieved 2021/12/01 11:35 UTC (13 minutes ago):

KATS 011135Z AUTO 32006KT 10SM CLR 02/M05 A3019 RMK AO2

Closest aviation forecast (TAF) to Artesia Municipal Airport

Closest forecast is Roswell Air Center Airport, 27.1 nm (50.3 km) N. Retrieved 2021/12/01 06:22 UTC (5 hours ago):

TAF KROW 010520Z 0106/0206 31006KT P6SM SCT250 FM011200 VRB06KT P6SM SCT250 FM012000 16007KT P6SM SCT250 FM020200 23006KT P6SM SCT250